Time;durP1;ratioP1;P1;durP2;ratioP2;P2;SDS_P1;SDS_P2;PMS_P1;PMS_P2;Temp;Humidity;BMP_temperature;BMP_pressure;BME280_temperature;BME280_humidity;BME280_pressure;Samples;Min_cycle;Max_cycle;Signal;HPM_P1;HPM_P2
2022/04/06 00:00:15;;;;;;;;;3.00;3.00;;;;;;;;5076918;28;45504;-77
2022/04/06 00:02:40;;;;;;;;;5.00;3.00;;;;;;;;5076380;28;45594;-77
2022/04/06 00:05:09;;;;;;;;;4.00;3.00;;;;;;;;5073739;27;45486;-78
2022/04/06 00:07:34;;;;;;;;;3.00;2.50;;;;;;;;5062983;28;46419;-77
2022/04/06 00:09:59;;;;;;;;;3.00;3.00;;;;;;;;5075777;28;45417;-77
2022/04/06 00:12:25;;;;;;;;;4.50;1.00;;;;;;;;5063097;28;45677;-77
2022/04/06 00:14:50;;;;;;;;;2.75;2.25;;;;;;;;5073798;28;45495;-77
2022/04/06 00:17:15;;;;;;;;;2.00;1.25;;;;;;;;5076177;28;46371;-78
2022/04/06 00:19:41;;;;;;;;;3.25;1.00;;;;;;;;5075960;28;45481;-77
2022/04/06 00:22:06;;;;;;;;;1.50;1.00;;;;;;;;5074819;28;45676;-77
2022/04/06 00:24:31;;;;;;;;;3.00;3.00;;;;;;;;5061805;28;45489;-77
2022/04/06 00:26:57;;;;;;;;;1.00;1.00;;;;;;;;5074487;27;46530;-77
2022/04/06 00:29:22;;;;;;;;;3.00;1.25;;;;;;;;5074493;28;45618;-77
2022/04/06 00:31:47;;;;;;;;;3.50;2.00;;;;;;;;5075903;28;45357;-77
2022/04/06 00:34:13;;;;;;;;;1.25;1.25;;;;;;;;5075969;28;45487;-78
2022/04/06 00:36:38;;;;;;;;;3.75;2.00;;;;;;;;5075904;27;46182;-78
2022/04/06 00:39:03;;;;;;;;;1.00;1.00;;;;;;;;5075821;28;45424;-78
2022/04/06 00:41:28;;;;;;;;;2.00;2.00;;;;;;;;5075775;28;46863;-77
2022/04/06 00:44:09;;;;;;;;;1.00;1.00;;;;;;;;5075659;27;45496;-77
2022/04/06 00:46:34;;;;;;;;;2.75;1.00;;;;;;;;5075549;28;45309;-77
2022/04/06 00:48:59;;;;;;;;;2.00;1.00;;;;;;;;5074488;28;45635;-77
2022/04/06 00:51:24;;;;;;;;;0.25;0.25;;;;;;;;5075283;28;45319;-77
2022/04/06 00:53:50;;;;;;;;;1.75;1.75;;;;;;;;5075303;28;45480;-77
2022/04/06 00:56:15;;;;;;;;;1.75;1.75;;;;;;;;5075211;27;47299;-77
2022/04/06 00:58:40;;;;;;;;;4.75;2.00;;;;;;;;5075494;28;45425;-77
2022/04/06 01:01:06;;;;;;;;;1.00;1.00;;;;;;;;5075988;27;45444;-78
2022/04/06 01:03:31;;;;;;;;;2.50;1.50;;;;;;;;5061509;28;45619;-77
2022/04/06 01:05:56;;;;;;;;;1.00;1.00;;;;;;;;5073241;28;45377;-77
2022/04/06 01:08:22;;;;;;;;;1.00;1.00;;;;;;;;5075221;28;45461;-77
2022/04/06 01:10:47;;;;;;;;;3.75;1.50;;;;;;;;5069146;27;45362;-77
2022/04/06 01:13:13;;;;;;;;;2.00;2.00;;;;;;;;5059844;28;45418;-77
2022/04/06 01:15:38;;;;;;;;;7.50;3.00;;;;;;;;5077357;27;45802;-78
2022/04/06 01:18:03;;;;;;;;;3.00;2.00;;;;;;;;5076890;28;45270;-76
2022/04/06 01:20:29;;;;;;;;;2.50;2.00;;;;;;;;5076299;27;46285;-77
2022/04/06 01:22:54;;;;;;;;;3.00;2.00;;;;;;;;5073725;28;45438;-76
2022/04/06 01:25:19;;;;;;;;;2.50;2.00;;;;;;;;5060621;28;45535;-77
2022/04/06 01:27:45;;;;;;;;;1.25;1.25;;;;;;;;5075730;27;45493;-77
2022/04/06 01:30:10;;;;;;;;;1.75;1.75;;;;;;;;5075815;27;45532;-77
2022/04/06 01:32:36;;;;;;;;;3.00;1.75;;;;;;;;5075143;27;45440;-77
2022/04/06 01:35:02;;;;;;;;;2.50;2.50;;;;;;;;5073761;28;46724;-77
2022/04/06 01:37:28;;;;;;;;;2.00;1.00;;;;;;;;5075178;27;45394;-78
2022/04/06 01:39:53;;;;;;;;;3.50;1.75;;;;;;;;5058981;27;45275;-77
2022/04/06 01:42:19;;;;;;;;;4.00;1.50;;;;;;;;5062356;28;45627;-77
2022/04/06 01:44:46;;;;;;;;;4.00;2.00;;;;;;;;5071532;28;46226;-77
2022/04/06 01:47:12;;;;;;;;;2.50;2.25;;;;;;;;5074754;27;45432;-76
2022/04/06 01:52:21;;;;;;;;;2.00;2.00;;;;;;;;5059917;28;45307;-78
2022/04/06 01:54:48;;;;;;;;;1.00;0.00;;;;;;;;5074933;27;45342;-77
2022/04/06 01:57:14;;;;;;;;;4.00;3.75;;;;;;;;5074992;28;45385;-77
2022/04/06 01:59:40;;;;;;;;;2.25;2.00;;;;;;;;5074163;27;45513;-77
2022/04/06 02:02:05;;;;;;;;;1.75;1.25;;;;;;;;5074152;27;45268;-77
2022/04/06 02:04:31;;;;;;;;;3.00;1.50;;;;;;;;5074524;27;47155;-77
2022/04/06 02:06:56;;;;;;;;;1.00;1.00;;;;;;;;5074704;28;45601;-77
2022/04/06 02:09:21;;;;;;;;;1.50;0.00;;;;;;;;5069193;28;45332;-77
2022/04/06 02:11:47;;;;;;;;;1.50;0.50;;;;;;;;5071525;28;45626;-77
2022/04/06 02:14:13;;;;;;;;;4.00;0.75;;;;;;;;5074330;27;45680;-76
2022/04/06 02:16:38;;;;;;;;;1.00;1.00;;;;;;;;5074412;28;45374;-78
2022/04/06 02:19:04;;;;;;;;;0.50;0.00;;;;;;;;5074523;27;45333;-77
2022/04/06 02:21:30;;;;;;;;;1.00;1.00;;;;;;;;5059719;27;45440;-77
2022/04/06 02:23:55;;;;;;;;;1.00;1.00;;;;;;;;5072426;28;46107;-77
2022/04/06 02:26:20;;;;;;;;;2.25;1.00;;;;;;;;5068965;28;45523;-77
2022/04/06 02:28:45;;;;;;;;;2.00;2.00;;;;;;;;5074315;28;45433;-77
2022/04/06 02:31:11;;;;;;;;;3.50;2.00;;;;;;;;5073914;28;45409;-77
2022/04/06 02:33:36;;;;;;;;;2.75;1.75;;;;;;;;5074373;28;45512;-77
2022/04/06 02:36:03;;;;;;;;;1.25;1.25;;;;;;;;5074113;28;45522;-78
2022/04/06 02:38:28;;;;;;;;;0.75;0.75;;;;;;;;5065886;28;45473;-77
2022/04/06 02:40:54;;;;;;;;;3.25;1.50;;;;;;;;5063556;28;45358;-77
2022/04/06 02:43:19;;;;;;;;;0.25;0.00;;;;;;;;5073971;28;47343;-77
2022/04/06 02:45:44;;;;;;;;;0.50;0.00;;;;;;;;5075500;28;45512;-77
2022/04/06 02:48:09;;;;;;;;;0.00;0.00;;;;;;;;5077896;28;45527;-77
2022/04/06 02:50:34;;;;;;;;;1.00;1.00;;;;;;;;5077590;28;45452;-77
2022/04/06 02:53:00;;;;;;;;;0.50;0.00;;;;;;;;5076971;28;46114;-77
2022/04/06 02:55:25;;;;;;;;;0.00;0.00;;;;;;;;5077288;28;45594;-77
2022/04/06 02:57:50;;;;;;;;;0.50;0.00;;;;;;;;5077369;28;45460;-77
2022/04/06 03:00:16;;;;;;;;;1.00;1.00;;;;;;;;5064787;28;45464;-77
2022/04/06 03:02:41;;;;;;;;;1.50;0.75;;;;;;;;5072943;28;45399;-77
2022/04/06 03:05:07;;;;;;;;;0.75;0.50;;;;;;;;5072283;27;45516;-78
2022/04/06 03:07:32;;;;;;;;;1.00;1.00;;;;;;;;5063855;28;45288;-77
2022/04/06 03:09:57;;;;;;;;;1.00;1.00;;;;;;;;5077193;27;45475;-77
2022/04/06 03:12:22;;;;;;;;;0.25;0.25;;;;;;;;5077073;28;46257;-77
2022/04/06 03:14:48;;;;;;;;;0.00;0.00;;;;;;;;5076573;28;45389;-77
2022/04/06 03:17:16;;;;;;;;;0.00;0.00;;;;;;;;5072517;28;45308;-77
2022/04/06 03:19:41;;;;;;;;;0.50;0.50;;;;;;;;5077044;28;45430;-77
2022/04/06 03:22:07;;;;;;;;;0.50;0.50;;;;;;;;5076474;27;47104;-77
2022/04/06 03:24:32;;;;;;;;;1.50;1.00;;;;;;;;5077395;28;45536;-77
2022/04/06 03:26:58;;;;;;;;;0.00;0.00;;;;;;;;5076962;28;45409;-78
2022/04/06 03:29:23;;;;;;;;;1.00;0.00;;;;;;;;5076761;28;45585;-78
2022/04/06 03:31:48;;;;;;;;;0.00;0.00;;;;;;;;5076644;27;49243;-77
2022/04/06 03:34:13;;;;;;;;;1.00;1.00;;;;;;;;5076488;28;45494;-76
2022/04/06 03:36:39;;;;;;;;;0.00;0.00;;;;;;;;5061045;28;45346;-76
2022/04/06 03:39:04;;;;;;;;;1.50;0.00;;;;;;;;5076290;28;45482;-77
2022/04/06 03:41:29;;;;;;;;;0.00;0.00;;;;;;;;5076599;27;45534;-77
2022/04/06 03:43:54;;;;;;;;;0.25;0.00;;;;;;;;5075907;28;45365;-77
2022/04/06 03:46:19;;;;;;;;;0.75;0.75;;;;;;;;5076485;27;45480;-77
2022/04/06 03:48:45;;;;;;;;;0.00;0.00;;;;;;;;5077331;27;45446;-78
2022/04/06 03:51:10;;;;;;;;;1.00;0.00;;;;;;;;5076364;28;46032;-77
2022/04/06 03:53:35;;;;;;;;;1.00;0.00;;;;;;;;5076267;28;45542;-77
2022/04/06 03:56:00;;;;;;;;;0.75;0.00;;;;;;;;5075365;28;45267;-77
2022/04/06 03:58:26;;;;;;;;;0.00;0.00;;;;;;;;5074868;28;45288;-77
2022/04/06 04:00:51;;;;;;;;;0.00;0.00;;;;;;;;5075907;27;45690;-78
2022/04/06 04:03:16;;;;;;;;;1.00;1.00;;;;;;;;5075973;28;45485;-77
2022/04/06 04:05:41;;;;;;;;;0.00;0.00;;;;;;;;5076205;28;45554;-77
2022/04/06 04:08:06;;;;;;;;;0.00;0.00;;;;;;;;5076181;28;47163;-77
2022/04/06 04:10:32;;;;;;;;;1.00;0.00;;;;;;;;5076002;27;46323;-76
2022/04/06 04:12:57;;;;;;;;;0.00;0.00;;;;;;;;5075393;27;46021;-77
2022/04/06 04:15:22;;;;;;;;;0.00;0.00;;;;;;;;5076560;28;45466;-77
2022/04/06 04:17:47;;;;;;;;;1.00;1.00;;;;;;;;5067040;27;45549;-76
2022/04/06 04:20:13;;;;;;;;;0.00;0.00;;;;;;;;5063638;28;45438;-75
2022/04/06 04:22:38;;;;;;;;;2.00;1.00;;;;;;;;5062687;28;45447;-77
2022/04/06 04:25:03;;;;;;;;;2.00;1.00;;;;;;;;5070577;27;45679;-79
2022/04/06 04:27:29;;;;;;;;;0.00;0.00;;;;;;;;5076095;27;45465;-80
2022/04/06 04:29:55;;;;;;;;;0.00;0.00;;;;;;;;5072681;28;47131;-80
2022/04/06 04:32:20;;;;;;;;;0.00;0.00;;;;;;;;5074881;28;45428;-78
2022/04/06 04:34:46;;;;;;;;;0.00;0.00;;;;;;;;5075798;28;45410;-81
2022/04/06 04:37:11;;;;;;;;;2.00;1.00;;;;;;;;5075846;28;45296;-80
2022/04/06 04:39:36;;;;;;;;;1.25;0.75;;;;;;;;5078067;28;45375;-81
2022/04/06 04:42:02;;;;;;;;;1.00;1.00;;;;;;;;5072346;28;45405;-79
2022/04/06 04:44:27;;;;;;;;;0.50;0.50;;;;;;;;5075248;27;45359;-80
2022/04/06 04:46:52;;;;;;;;;0.00;0.00;;;;;;;;5075539;28;45429;-81
2022/04/06 04:49:17;;;;;;;;;2.00;2.00;;;;;;;;5074385;28;47166;-80
2022/04/06 04:51:43;;;;;;;;;1.00;1.00;;;;;;;;5075296;28;45410;-80
2022/04/06 04:54:08;;;;;;;;;0.75;0.75;;;;;;;;5074834;28;45507;-79
2022/04/06 04:56:34;;;;;;;;;1.50;1.50;;;;;;;;5067383;28;45387;-80
2022/04/06 04:58:59;;;;;;;;;3.75;0.25;;;;;;;;5064731;28;47218;-80
2022/04/06 05:01:25;;;;;;;;;1.00;1.00;;;;;;;;5075448;27;45517;-79
2022/04/06 05:03:50;;;;;;;;;2.00;0.50;;;;;;;;5076909;27;45497;-80
2022/04/06 05:06:16;;;;;;;;;1.00;1.00;;;;;;;;5074028;28;45557;-80
2022/04/06 05:08:41;;;;;;;;;5.00;3.00;;;;;;;;5065387;27;45399;-79
2022/04/06 05:11:06;;;;;;;;;4.25;3.00;;;;;;;;5065473;28;45501;-81
2022/04/06 05:13:31;;;;;;;;;1.00;1.00;;;;;;;;5074399;28;45313;-81
2022/04/06 05:15:57;;;;;;;;;2.75;2.75;;;;;;;;5068182;27;45338;-80
2022/04/06 05:18:23;;;;;;;;;4.25;3.00;;;;;;;;5073991;28;46038;-80
2022/04/06 05:20:48;;;;;;;;;0.50;0.50;;;;;;;;5073551;27;45353;-81
2022/04/06 05:23:13;;;;;;;;;2.00;2.00;;;;;;;;5071304;27;45812;-80
2022/04/06 05:25:38;;;;;;;;;1.75;1.00;;;;;;;;5072853;28;45347;-80
2022/04/06 05:28:04;;;;;;;;;1.00;1.00;;;;;;;;5073824;28;45473;-79
2022/04/06 05:30:33;;;;;;;;;3.00;1.50;;;;;;;;5073980;28;45239;-80
2022/04/06 05:32:59;;;;;;;;;2.00;1.25;;;;;;;;5073981;27;45587;-79
2022/04/06 05:35:26;;;;;;;;;1.50;1.25;;;;;;;;5071624;27;45336;-79
2022/04/06 05:37:51;;;;;;;;;1.00;1.00;;;;;;;;5073515;27;46381;-80
2022/04/06 05:40:17;;;;;;;;;1.00;1.00;;;;;;;;5073546;27;45535;-79
2022/04/06 05:42:42;;;;;;;;;0.75;0.00;;;;;;;;5074839;27;45573;-79
2022/04/06 05:45:08;;;;;;;;;2.75;2.75;;;;;;;;5073402;27;45289;-79
2022/04/06 05:47:34;;;;;;;;;1.75;1.75;;;;;;;;5072939;27;47218;-79
2022/04/06 05:49:59;;;;;;;;;4.00;1.00;;;;;;;;5074466;27;45442;-84
2022/04/06 05:52:25;;;;;;;;;2.25;1.25;;;;;;;;5075114;27;45430;-84
2022/04/06 05:54:51;;;;;;;;;5.00;3.00;;;;;;;;5073352;27;45295;-79
2022/04/06 05:57:16;;;;;;;;;2.00;2.00;;;;;;;;5073701;27;47029;-80
2022/04/06 05:59:41;;;;;;;;;2.50;1.25;;;;;;;;5071638;28;45273;-80
2022/04/06 06:02:07;;;;;;;;;2.25;2.00;;;;;;;;5058696;28;45316;-80
2022/04/06 06:04:33;;;;;;;;;2.50;1.50;;;;;;;;5061488;28;45479;-80
2022/04/06 06:06:58;;;;;;;;;1.00;1.00;;;;;;;;5075274;27;46449;-79
2022/04/06 06:09:23;;;;;;;;;2.00;2.00;;;;;;;;5061244;27;45268;-78
2022/04/06 06:11:49;;;;;;;;;2.00;2.00;;;;;;;;5064883;28;45425;-79
2022/04/06 06:14:14;;;;;;;;;4.75;2.00;;;;;;;;5061279;28;45570;-79
2022/04/06 06:16:39;;;;;;;;;3.25;3.00;;;;;;;;5060320;28;45578;-79
2022/04/06 06:19:04;;;;;;;;;3.50;3.50;;;;;;;;5071423;27;45389;-79
2022/04/06 06:21:32;;;;;;;;;4.00;3.50;;;;;;;;5063867;28;45426;-78
2022/04/06 06:24:04;;;;;;;;;6.00;3.00;;;;;;;;5066135;28;45609;-78
2022/04/06 06:26:29;;;;;;;;;5.25;3.75;;;;;;;;5072130;28;46279;-81
2022/04/06 06:28:54;;;;;;;;;4.75;3.75;;;;;;;;5074723;28;45244;-83
2022/04/06 06:31:19;;;;;;;;;5.50;4.75;;;;;;;;5064399;28;45433;-83
2022/04/06 06:33:45;;;;;;;;;5.75;4.00;;;;;;;;5075908;28;45521;-78
2022/04/06 06:36:11;;;;;;;;;5.50;4.00;;;;;;;;5067377;27;46294;-82
2022/04/06 06:38:36;;;;;;;;;6.75;6.25;;;;;;;;5066372;28;45397;-77
2022/04/06 06:41:01;;;;;;;;;3.25;3.00;;;;;;;;5069465;28;45569;-79
2022/04/06 06:43:26;;;;;;;;;3.50;3.00;;;;;;;;5074446;28;45382;-77
2022/04/06 06:45:52;;;;;;;;;2.50;2.50;;;;;;;;5069501;28;46262;-75
2022/04/06 06:48:17;;;;;;;;;7.75;4.00;;;;;;;;5064808;28;45555;-78
2022/04/06 06:50:42;;;;;;;;;2.25;1.50;;;;;;;;5067322;28;45461;-78
2022/04/06 06:53:07;;;;;;;;;2.75;2.75;;;;;;;;5066090;28;45701;-80
2022/04/06 06:55:33;;;;;;;;;4.00;2.50;;;;;;;;5069870;28;46131;-82
2022/04/06 06:57:59;;;;;;;;;6.50;4.00;;;;;;;;5073494;28;45512;-78
2022/04/06 07:00:24;;;;;;;;;4.25;3.25;;;;;;;;5068500;28;45468;-79
2022/04/06 07:02:49;;;;;;;;;3.75;3.00;;;;;;;;5073380;28;45589;-78
2022/04/06 07:05:15;;;;;;;;;2.00;2.00;;;;;;;;5070507;28;46324;-79
2022/04/06 07:07:53;;;;;;;;;5.50;3.75;;;;;;;;5073749;28;45391;-81
2022/04/06 07:10:23;;;;;;;;;8.00;4.50;;;;;;;;5075328;28;45518;-78
2022/04/06 07:12:48;;;;;;;;;1.50;1.00;;;;;;;;5064021;27;45379;-80
2022/04/06 07:15:14;;;;;;;;;4.50;3.25;;;;;;;;5076333;27;45431;-81
2022/04/06 07:17:39;;;;;;;;;4.00;3.00;;;;;;;;5075877;28;46119;-80
2022/04/06 07:20:08;;;;;;;;;2.25;2.25;;;;;;;;5076882;27;45685;-80
2022/04/06 07:22:34;;;;;;;;;2.25;2.25;;;;;;;;5074887;27;45434;-78
2022/04/06 07:24:59;;;;;;;;;3.25;3.25;;;;;;;;5071850;27;45482;-77
2022/04/06 07:27:24;;;;;;;;;4.25;2.75;;;;;;;;5075685;28;45452;-80
2022/04/06 07:29:51;;;;;;;;;4.00;4.00;;;;;;;;5074328;28;45525;-78
2022/04/06 07:32:16;;;;;;;;;5.50;5.50;;;;;;;;5071504;28;45456;-79
2022/04/06 07:34:43;;;;;;;;;6.00;3.75;;;;;;;;5074989;27;45596;-77
2022/04/06 07:37:08;;;;;;;;;4.25;3.50;;;;;;;;5067360;27;45363;-82
2022/04/06 07:39:34;;;;;;;;;11.00;5.50;;;;;;;;5072937;28;45397;-81
2022/04/06 07:41:59;;;;;;;;;12.50;5.75;;;;;;;;5070959;27;45414;-80
2022/04/06 07:44:24;;;;;;;;;7.25;6.00;;;;;;;;5065961;28;45335;-82
2022/04/06 07:46:50;;;;;;;;;9.50;7.25;;;;;;;;5064005;28;45273;-82
2022/04/06 07:49:16;;;;;;;;;8.25;5.50;;;;;;;;5068338;28;45344;-81
2022/04/06 07:51:41;;;;;;;;;4.25;3.75;;;;;;;;5075408;27;45491;-81
2022/04/06 07:54:09;;;;;;;;;3.50;2.75;;;;;;;;5074209;28;46960;-84
2022/04/06 07:56:36;;;;;;;;;8.75;5.00;;;;;;;;5074492;28;45598;-80
2022/04/06 07:59:02;;;;;;;;;5.25;4.75;;;;;;;;5074512;28;45448;-80
2022/04/06 08:01:28;;;;;;;;;2.75;2.25;;;;;;;;5070169;28;45736;-77
2022/04/06 08:03:53;;;;;;;;;7.75;5.00;;;;;;;;5069445;28;45837;-78
2022/04/06 08:06:18;;;;;;;;;5.25;4.50;;;;;;;;5074581;27;45565;-80
2022/04/06 08:08:44;;;;;;;;;4.50;2.00;;;;;;;;5075817;28;45424;-78
2022/04/06 08:11:09;;;;;;;;;8.00;5.50;;;;;;;;5076482;28;45461;-79
2022/04/06 08:13:34;;;;;;;;;5.25;3.75;;;;;;;;5075475;28;46316;-79
2022/04/06 08:16:00;;;;;;;;;3.00;2.00;;;;;;;;5076460;28;45247;-78
2022/04/06 08:18:25;;;;;;;;;3.00;3.00;;;;;;;;5064794;27;45542;-77
2022/04/06 08:20:50;;;;;;;;;3.25;3.25;;;;;;;;5063899;28;45206;-79
2022/04/06 08:23:17;;;;;;;;;3.00;1.75;;;;;;;;5066514;28;46362;-79
2022/04/06 08:25:43;;;;;;;;;3.25;2.50;;;;;;;;5074178;28;45526;-79
2022/04/06 08:28:11;;;;;;;;;3.75;3.75;;;;;;;;5074579;27;45339;-78
2022/04/06 08:30:40;;;;;;;;;4.25;3.00;;;;;;;;5074873;27;45439;-78
2022/04/06 08:33:05;;;;;;;;;2.00;2.00;;;;;;;;5073490;27;45357;-78
2022/04/06 08:35:30;;;;;;;;;2.00;2.00;;;;;;;;5073385;28;45313;-78
2022/04/06 08:37:56;;;;;;;;;4.75;2.00;;;;;;;;5073829;28;45497;-78
2022/04/06 08:40:21;;;;;;;;;4.00;4.00;;;;;;;;5074437;28;45611;-78
2022/04/06 08:42:46;;;;;;;;;3.00;3.00;;;;;;;;5073999;27;46952;-80
2022/04/06 08:45:12;;;;;;;;;5.25;4.00;;;;;;;;5074322;27;45252;-78
2022/04/06 08:47:37;;;;;;;;;4.00;4.00;;;;;;;;5073821;28;45417;-79
2022/04/06 08:50:03;;;;;;;;;5.00;3.00;;;;;;;;5071346;28;45207;-79
2022/04/06 08:52:31;;;;;;;;;2.50;2.00;;;;;;;;5058523;28;46021;-80
2022/04/06 08:54:56;;;;;;;;;4.00;3.75;;;;;;;;5074818;27;45413;-78
2022/04/06 08:57:21;;;;;;;;;4.00;2.50;;;;;;;;5075314;28;45379;-79
2022/04/06 08:59:48;;;;;;;;;3.00;3.00;;;;;;;;5064707;28;45443;-79
2022/04/06 09:02:16;;;;;;;;;4.25;3.00;;;;;;;;5066289;28;47420;-78
2022/04/06 09:04:41;;;;;;;;;5.50;2.50;;;;;;;;5073971;27;45468;-80
2022/04/06 09:07:08;;;;;;;;;2.50;2.50;;;;;;;;5058072;28;45386;-78
2022/04/06 09:09:34;;;;;;;;;3.00;3.00;;;;;;;;5059985;27;45372;-79
2022/04/06 09:12:04;;;;;;;;;3.75;3.50;;;;;;;;5063213;28;47200;-79
2022/04/06 09:14:36;;;;;;;;;2.75;2.75;;;;;;;;5062982;28;45369;-80
2022/04/06 09:17:04;;;;;;;;;4.75;3.75;;;;;;;;5065334;28;45579;-79
2022/04/06 09:19:30;;;;;;;;;4.00;3.00;;;;;;;;5073054;28;45545;-79
2022/04/06 09:21:55;;;;;;;;;2.00;2.00;;;;;;;;5074192;27;46406;-79
2022/04/06 09:24:23;;;;;;;;;4.00;3.00;;;;;;;;5075100;28;45377;-78
2022/04/06 09:26:55;;;;;;;;;3.00;2.00;;;;;;;;5067014;27;45384;-80
2022/04/06 09:29:21;;;;;;;;;2.75;1.75;;;;;;;;5064037;28;45288;-78
2022/04/06 09:31:48;;;;;;;;;4.50;3.00;;;;;;;;5062613;28;47219;-80
2022/04/06 09:34:13;;;;;;;;;2.25;2.25;;;;;;;;5059095;28;45425;-78
2022/04/06 09:36:38;;;;;;;;;5.00;5.00;;;;;;;;5074686;28;45342;-79
2022/04/06 09:39:04;;;;;;;;;2.00;2.00;;;;;;;;5063166;28;45559;-79
2022/04/06 09:41:30;;;;;;;;;6.50;4.00;;;;;;;;5060741;28;47977;-79
2022/04/06 09:44:06;;;;;;;;;4.50;2.00;;;;;;;;5062918;28;45531;-78
2022/04/06 09:49:18;;;;;;;;;5.00;4.00;;;;;;;;5057201;28;45396;-79
2022/04/06 09:51:44;;;;;;;;;3.75;3.75;;;;;;;;5072862;27;46287;-79
2022/04/06 09:54:12;;;;;;;;;7.00;7.00;;;;;;;;5061106;28;45356;-79
2022/04/06 09:56:37;;;;;;;;;3.25;2.50;;;;;;;;5066312;28;45417;-77
2022/04/06 09:59:03;;;;;;;;;4.00;2.00;;;;;;;;5066234;28;45382;-80
2022/04/06 10:01:35;;;;;;;;;4.75;4.25;;;;;;;;5061786;28;47124;-80
2022/04/06 10:04:02;;;;;;;;;5.00;4.00;;;;;;;;5060740;27;45336;-79
2022/04/06 10:06:30;;;;;;;;;4.25;3.50;;;;;;;;5078025;27;45375;-79
2022/04/06 10:08:55;;;;;;;;;2.25;2.25;;;;;;;;5077544;27;45436;-79
2022/04/06 10:11:21;;;;;;;;;2.00;2.00;;;;;;;;5072376;28;45437;-79
2022/04/06 10:13:46;;;;;;;;;5.00;2.25;;;;;;;;5067370;28;45540;-79
2022/04/06 10:16:12;;;;;;;;;2.75;2.75;;;;;;;;5063647;28;45463;-78
2022/04/06 10:18:38;;;;;;;;;3.75;3.75;;;;;;;;5069387;28;45390;-79
2022/04/06 10:21:03;;;;;;;;;4.75;4.00;;;;;;;;5072875;28;46300;-79
2022/04/06 10:23:28;;;;;;;;;2.75;2.75;;;;;;;;5076039;28;47049;-80
2022/04/06 10:26:01;;;;;;;;;4.25;4.25;;;;;;;;5079050;28;45409;-80
2022/04/06 10:28:31;;;;;;;;;4.00;4.00;;;;;;;;5078114;27;45642;-80
2022/04/06 10:31:11;;;;;;;;;4.25;3.25;;;;;;;;5061014;27;45548;-80
2022/04/06 10:33:37;;;;;;;;;7.50;4.50;;;;;;;;5077161;28;45500;-80
2022/04/06 10:36:19;;;;;;;;;4.50;3.25;;;;;;;;5075756;28;45457;-80
2022/04/06 10:39:02;;;;;;;;;5.00;4.75;;;;;;;;5076761;27;45443;-79
2022/04/06 10:41:27;;;;;;;;;3.00;3.00;;;;;;;;5075884;27;45402;-77
2022/04/06 10:43:53;;;;;;;;;4.75;4.25;;;;;;;;5073908;27;45304;-79
2022/04/06 10:46:32;;;;;;;;;3.00;3.00;;;;;;;;5060320;28;45434;-80
2022/04/06 10:49:07;;;;;;;;;4.25;4.25;;;;;;;;5061226;27;45442;-79
2022/04/06 10:51:34;;;;;;;;;4.50;4.50;;;;;;;;5074370;28;45508;-79
2022/04/06 10:54:19;;;;;;;;;5.75;5.25;;;;;;;;5065118;27;45605;-79
2022/04/06 10:56:50;;;;;;;;;5.00;5.00;;;;;;;;5052967;27;45573;-78
2022/04/06 10:59:25;;;;;;;;;4.75;3.00;;;;;;;;5067464;28;45467;-79
2022/04/06 11:02:09;;;;;;;;;9.75;7.75;;;;;;;;5074814;27;46394;-79
2022/04/06 11:04:39;;;;;;;;;5.25;4.00;;;;;;;;5075541;28;45241;-79
2022/04/06 11:07:04;;;;;;;;;5.25;3.25;;;;;;;;5057165;27;45595;-78
2022/04/06 11:12:21;;;;;;;;;2.50;2.50;;;;;;;;5062753;28;45504;-80
2022/04/06 11:14:48;;;;;;;;;5.25;4.25;;;;;;;;5073060;28;45453;-79
2022/04/06 11:17:34;;;;;;;;;10.25;7.00;;;;;;;;5072485;27;45382;-79
2022/04/06 11:20:09;;;;;;;;;8.25;7.00;;;;;;;;5064529;28;45362;-79
2022/04/06 11:22:35;;;;;;;;;7.50;5.00;;;;;;;;5061808;28;47531;-78
2022/04/06 11:25:01;;;;;;;;;7.75;5.50;;;;;;;;5076107;27;45421;-80
2022/04/06 11:27:30;;;;;;;;;8.00;8.00;;;;;;;;5062344;27;45388;-80
2022/04/06 11:30:03;;;;;;;;;7.50;7.00;;;;;;;;5074029;28;46213;-79
2022/04/06 11:32:28;;;;;;;;;9.00;6.25;;;;;;;;5075317;27;45456;-79
2022/04/06 11:35:00;;;;;;;;;3.50;3.50;;;;;;;;5075568;27;45369;-79
2022/04/06 11:37:25;;;;;;;;;7.25;6.00;;;;;;;;5076085;28;45358;-79
2022/04/06 11:39:55;;;;;;;;;6.75;5.50;;;;;;;;5075711;27;45420;-80
2022/04/06 11:42:21;;;;;;;;;7.75;6.00;;;;;;;;5075702;27;47046;-79
2022/04/06 11:44:46;;;;;;;;;8.25;7.00;;;;;;;;5076002;27;45440;-80
2022/04/06 11:47:11;;;;;;;;;8.25;7.25;;;;;;;;5075513;27;45315;-78
2022/04/06 11:49:37;;;;;;;;;6.00;6.00;;;;;;;;5075348;27;45287;-79
2022/04/06 11:52:04;;;;;;;;;7.75;6.50;;;;;;;;5073604;28;47158;-79
2022/04/06 11:54:30;;;;;;;;;7.50;5.75;;;;;;;;5060949;27;45361;-80
2022/04/06 11:56:55;;;;;;;;;7.75;5.00;;;;;;;;5072600;28;45480;-78
2022/04/06 11:59:22;;;;;;;;;6.75;6.75;;;;;;;;5074784;27;45240;-79
2022/04/06 12:01:48;;;;;;;;;6.50;5.25;;;;;;;;5074456;27;46944;-79
2022/04/06 12:04:14;;;;;;;;;4.50;3.00;;;;;;;;5074833;27;45391;-79
2022/04/06 12:06:39;;;;;;;;;7.75;5.75;;;;;;;;5059227;27;45436;-79
2022/04/06 12:09:06;;;;;;;;;5.75;5.00;;;;;;;;5073361;28;45572;-79
2022/04/06 12:11:31;;;;;;;;;8.00;4.00;;;;;;;;5074473;28;45565;-80
2022/04/06 12:13:56;;;;;;;;;7.25;4.25;;;;;;;;5076813;27;45655;-79
2022/04/06 12:16:22;;;;;;;;;5.25;5.00;;;;;;;;5078893;28;45311;-79
2022/04/06 12:18:50;;;;;;;;;5.25;3.50;;;;;;;;5060720;27;45404;-79
2022/04/06 12:21:19;;;;;;;;;5.00;4.50;;;;;;;;5075670;27;45921;-79
2022/04/06 12:23:45;;;;;;;;;6.00;2.75;;;;;;;;5076540;27;45428;-80
2022/04/06 12:26:11;;;;;;;;;5.50;5.50;;;;;;;;5076523;27;45731;-79
2022/04/06 12:28:36;;;;;;;;;5.75;4.50;;;;;;;;5076770;27;45483;-79
2022/04/06 12:31:02;;;;;;;;;4.00;4.00;;;;;;;;5057342;28;45375;-80
2022/04/06 12:33:39;;;;;;;;;6.00;4.75;;;;;;;;5074831;27;45410;-77
2022/04/06 12:36:09;;;;;;;;;3.50;3.00;;;;;;;;5074118;28;45253;-78
2022/04/06 12:38:37;;;;;;;;;5.00;2.00;;;;;;;;5073913;27;45563;-79
2022/04/06 12:41:04;;;;;;;;;5.25;5.25;;;;;;;;5074095;27;47003;-79
2022/04/06 12:43:29;;;;;;;;;5.75;3.50;;;;;;;;5074156;27;45375;-79
2022/04/06 12:45:55;;;;;;;;;7.25;4.75;;;;;;;;5059559;28;45391;-79
2022/04/06 12:48:20;;;;;;;;;5.75;5.75;;;;;;;;5076490;27;45296;-78
2022/04/06 12:50:45;;;;;;;;;7.25;6.25;;;;;;;;5075817;28;46056;-79
2022/04/06 12:53:12;;;;;;;;;3.50;3.25;;;;;;;;5072467;28;45298;-80
2022/04/06 12:55:38;;;;;;;;;6.00;4.25;;;;;;;;5066123;28;45254;-79
2022/04/06 12:58:13;;;;;;;;;4.75;4.00;;;;;;;;5061156;27;45261;-78
2022/04/06 13:00:39;;;;;;;;;6.25;5.25;;;;;;;;5075294;27;47283;-79
2022/04/06 13:03:04;;;;;;;;;4.25;4.25;;;;;;;;5073698;28;45437;-80
2022/04/06 13:05:31;;;;;;;;;5.50;4.00;;;;;;;;5067990;27;45301;-79
2022/04/06 13:07:56;;;;;;;;;3.00;2.00;;;;;;;;5061098;28;45573;-78
2022/04/06 13:10:24;;;;;;;;;8.25;4.75;;;;;;;;5058947;28;45619;-78
2022/04/06 13:12:49;;;;;;;;;7.00;4.50;;;;;;;;5074069;28;45266;-79
2022/04/06 13:15:16;;;;;;;;;2.25;2.25;;;;;;;;5074556;28;45427;-78
2022/04/06 13:17:42;;;;;;;;;4.25;3.00;;;;;;;;5067682;27;45382;-79
2022/04/06 13:20:12;;;;;;;;;5.25;3.50;;;;;;;;5066888;27;45870;-77
2022/04/06 13:22:38;;;;;;;;;5.75;3.75;;;;;;;;5075376;27;45436;-79
2022/04/06 13:25:03;;;;;;;;;5.50;4.25;;;;;;;;5075113;27;45542;-80
2022/04/06 13:27:29;;;;;;;;;5.50;5.50;;;;;;;;5062088;28;45333;-79
2022/04/06 13:29:54;;;;;;;;;4.50;3.50;;;;;;;;5071606;28;46316;-78
2022/04/06 13:32:19;;;;;;;;;7.00;3.50;;;;;;;;5073267;28;45432;-80
2022/04/06 13:34:45;;;;;;;;;4.00;3.00;;;;;;;;5073307;28;45408;-80
2022/04/06 13:37:11;;;;;;;;;3.00;3.00;;;;;;;;5072868;27;45429;-80
2022/04/06 13:39:36;;;;;;;;;5.50;3.00;;;;;;;;5073567;27;47175;-80
2022/04/06 13:42:02;;;;;;;;;4.00;3.00;;;;;;;;5073819;27;45519;-80
2022/04/06 13:44:30;;;;;;;;;2.00;2.00;;;;;;;;5073261;27;45556;-80
2022/04/06 13:46:57;;;;;;;;;8.50;5.25;;;;;;;;5072917;27;45478;-79
2022/04/06 13:49:22;;;;;;;;;2.50;2.00;;;;;;;;5073088;28;45570;-82
2022/04/06 13:51:48;;;;;;;;;8.25;6.25;;;;;;;;5073492;27;45429;-78
2022/04/06 13:54:16;;;;;;;;;3.00;3.00;;;;;;;;5060650;27;45362;-80
2022/04/06 13:56:42;;;;;;;;;3.50;3.25;;;;;;;;5069026;28;45273;-79
2022/04/06 13:59:07;;;;;;;;;3.50;2.50;;;;;;;;5072703;27;45285;-79
2022/04/06 14:01:33;;;;;;;;;4.50;3.25;;;;;;;;5072649;28;45454;-79
2022/04/06 14:03:58;;;;;;;;;2.75;2.00;;;;;;;;5057263;27;45529;-79
2022/04/06 14:06:24;;;;;;;;;3.25;3.25;;;;;;;;5073693;27;45490;-80
2022/04/06 14:08:49;;;;;;;;;4.00;1.50;;;;;;;;5064500;27;47169;-79
2022/04/06 14:11:14;;;;;;;;;3.00;2.00;;;;;;;;5061589;28;45421;-79
2022/04/06 14:13:39;;;;;;;;;2.50;2.50;;;;;;;;5060570;28;45384;-81
2022/04/06 14:16:05;;;;;;;;;4.00;4.00;;;;;;;;5056652;28;45359;-80
2022/04/06 14:18:30;;;;;;;;;1.00;1.00;;;;;;;;5074257;28;47028;-80
2022/04/06 14:20:55;;;;;;;;;5.25;2.25;;;;;;;;5065362;28;45474;-79
2022/04/06 14:23:20;;;;;;;;;2.00;2.00;;;;;;;;5063155;28;45349;-79
2022/04/06 14:25:46;;;;;;;;;3.00;3.00;;;;;;;;5063208;28;45374;-79
2022/04/06 14:28:12;;;;;;;;;1.75;1.75;;;;;;;;5058732;28;45440;-79
2022/04/06 14:30:37;;;;;;;;;4.75;3.00;;;;;;;;5060137;27;45349;-79
2022/04/06 14:33:02;;;;;;;;;3.50;2.75;;;;;;;;5063790;28;45578;-78
2022/04/06 14:35:30;;;;;;;;;3.00;3.00;;;;;;;;5063565;28;45573;-80
2022/04/06 14:37:55;;;;;;;;;2.75;2.00;;;;;;;;5063120;28;45429;-80
2022/04/06 14:40:20;;;;;;;;;1.00;1.00;;;;;;;;5074860;28;45476;-80
2022/04/06 14:42:46;;;;;;;;;1.00;1.00;;;;;;;;5078269;27;45272;-78
2022/04/06 14:45:12;;;;;;;;;2.00;2.00;;;;;;;;5067684;27;45594;-79